Bookmark and Share
Track history (hours):
 

Overseas Houston

More information available from US FCC via Universal Licensing System and Coast Guard Vessel Documentation Center.

Last reported at 2014-Apr-17 12:30 UTC. Time now 2014-Apr-17 15:37 UTC.
Position N 27°38' W 082°38'.

Type: Tanker. MMSI: 367109000.

NotesDate/timePositionNaut miles runAvg speedWind from/ knotsBaromVisibWave heightAir tempDewpointWater temp
2014-Apr-17 12:30N 27°38' W 082°38'1010.8
2014-Apr-17 11:33N 27°47' W 082°32'5 4.3
2014-Apr-17 10:31N 27°52' W 082°33'0 0.0
2014-Apr-17 09:31N 27°52' W 082°33'0 0.0
2014-Apr-17 08:34N 27°52' W 082°33'0 0.0
2014-Apr-17 07:33N 27°52' W 082°33'0 0.0
2014-Apr-17 06:33N 27°52' W 082°33'0 0.0
2014-Apr-17 05:33N 27°52' W 082°33'0 0.0
2014-Apr-17 04:33N 27°52' W 082°33'0 0.0
2014-Apr-17 03:33N 27°52' W 082°33'0 0.0
2014-Apr-17 02:33N 27°52' W 082°33'0 0.0
2014-Apr-17 01:33N 27°52' W 082°33'0 0.0
2014-Apr-17 00:33N 27°52' W 082°33'0 0.0
2014-Apr-16 23:33N 27°52' W 082°33'0 0.0
2014-Apr-16 22:33N 27°52' W 082°33'0 0.0
2014-Apr-16 21:33N 27°52' W 082°33'0 0.0
2014-Apr-16 20:33N 27°52' W 082°33'0 0.0
2014-Apr-16 19:33N 27°52' W 082°33'0 0.0
2014-Apr-16 18:33N 27°52' W 082°33'0 0.0
2014-Apr-16 17:33N 27°52' W 082°33'0 0.0
2014-Apr-16 16:33N 27°52' W 082°33'0 0.0
2014-Apr-16 15:33N 27°52' W 082°33'0 0.0
2014-Apr-16 14:33N 27°52' W 082°33'0 0.0
2014-Apr-16 13:33N 27°52' W 082°33'0 0.0
2014-Apr-16 12:33N 27°52' W 082°33'0 0.0
2014-Apr-16 11:33N 27°52' W 082°33'0 0.0
2014-Apr-16 10:30N 27°52' W 082°33'0 0.0
2014-Apr-16 09:33N 27°52' W 082°33'0 0.0
2014-Apr-16 08:33N 27°52' W 082°33'0 0.0
2014-Apr-16 07:33N 27°52' W 082°33'0 0.0
2014-Apr-16 06:33N 27°52' W 082°33'0 0.0
2014-Apr-16 05:33N 27°52' W 082°33'0 0.0
2014-Apr-16 04:33N 27°52' W 082°33'0 0.3
2014-Apr-16 03:33N 27°52' W 082°33'1 0.8
2014-Apr-16 02:33N 27°51' W 082°34'5 4.9
2014-Apr-16 01:33N 27°48' W 082°29'8 7.8
2014-Apr-16 00:33N 27°55' W 082°27'0 0.0
2014-Apr-15 23:30N 27°55' W 082°27'0 0.0
2014-Apr-15 22:33N 27°55' W 082°27'0 0.0
2014-Apr-15 21:33N 27°55' W 082°27'0 0.0
2014-Apr-15 20:33N 27°55' W 082°27'0 0.0
2014-Apr-15 19:33N 27°55' W 082°27'0 0.0
2014-Apr-15 18:33N 27°55' W 082°27'0 0.0
2014-Apr-15 17:33N 27°55' W 082°27'0 0.0
2014-Apr-15 16:33N 27°55' W 082°27'0 0.0
2014-Apr-15 15:33N 27°55' W 082°27'0 0.0
2014-Apr-15 14:33N 27°55' W 082°27'0 0.0
2014-Apr-15 12:34N 27°55' W 082°27'0 0.0
2014-Apr-15 11:34N 27°55' W 082°27'0 0.0
2014-Apr-15 10:34N 27°55' W 082°27'0 0.0
2014-Apr-15 09:34N 27°55' W 082°27'0 0.0
2014-Apr-15 08:33N 27°55' W 082°27'0 0.0
2014-Apr-15 07:33N 27°55' W 082°27'0 0.0
2014-Apr-15 06:33N 27°55' W 082°27'0 0.0
2014-Apr-15 05:33N 27°55' W 082°27'11 5.6
2014-Apr-15 03:34N 27°45' W 082°32'42510.0
2014-Apr-13 09:06N 29°55' W 090°13'610.2
2014-Apr-13 08:33N 29°56' W 090°19'6 5.5
2014-Apr-13 07:28N 29°60' W 090°25'0 0.0
2014-Apr-13 06:31N 29°60' W 090°25'0 0.0
2014-Apr-13 05:31N 29°60' W 090°25'0 0.0
2014-Apr-13 04:31N 29°60' W 090°25'0 0.0
2014-Apr-13 03:31N 29°60' W 090°25'0 0.0
2014-Apr-13 02:31N 29°60' W 090°25'0 0.0
2014-Apr-13 01:31N 29°60' W 090°25'0 0.0
2014-Apr-13 00:31N 29°60' W 090°25'0 0.0
2014-Apr-12 23:28N 29°60' W 090°25'0 0.0
2014-Apr-12 22:31N 29°60' W 090°25'0 0.0
2014-Apr-12 21:31N 29°60' W 090°25'0 0.0
2014-Apr-12 20:31N 29°60' W 090°25'0 0.0
2014-Apr-12 19:31N 29°60' W 090°25'0 0.0
2014-Apr-12 18:31N 29°60' W 090°25'0 0.0
2014-Apr-12 17:31N 29°60' W 090°25'0 0.0
2014-Apr-12 16:31N 29°60' W 090°25'0 0.0
2014-Apr-12 12:19N 29°60' W 090°25'0 0.0
2014-Apr-12 11:31N 29°60' W 090°25'0 0.0
2014-Apr-12 10:31N 29°60' W 090°25'0 0.0
2014-Apr-12 09:22N 29°60' W 090°25'0 0.0
2014-Apr-12 08:31N 29°60' W 090°25'0 0.0
2014-Apr-12 07:31N 29°60' W 090°25'0 0.0
2014-Apr-12 06:31N 29°60' W 090°25'0 0.0
2014-Apr-12 05:25N 29°60' W 090°25'0 0.0
2014-Apr-12 04:34N 29°60' W 090°25'0 0.0
2014-Apr-12 03:34N 29°60' W 090°25'0 0.0
2014-Apr-12 02:27N 29°60' W 090°25'0 0.0
2014-Apr-12 01:33N 29°60' W 090°25'0 0.0
2014-Apr-12 00:33N 29°60' W 090°25'0 0.0
2014-Apr-11 23:33N 29°60' W 090°25'0 0.0
2014-Apr-11 12:21N 29°60' W 090°25'0 0.0
2014-Apr-11 11:27N 29°60' W 090°25'0 0.0
2014-Apr-11 10:33N 29°60' W 090°25'0 0.0
2014-Apr-11 09:33N 29°60' W 090°25'0 0.0
2014-Apr-11 08:33N 29°60' W 090°25'6 6.1
2014-Apr-11 07:33N 29°57' W 090°18'8 7.9
2014-Apr-11 06:33N 29°57' W 090°09'8 6.6
2014-Apr-11 05:23N 29°56' W 090°00'41211.8
2014-Apr-09 18:33N 27°39' W 082°37'10 9.6
2014-Apr-09 17:31N 27°49' W 082°34'3 3.0
2014-Apr-09 16:31N 27°52' W 082°33'0 0.0
2014-Apr-09 15:31N 27°52' W 082°33'0 0.0
2014-Apr-09 14:31N 27°52' W 082°33'0 0.0
2014-Apr-09 13:31N 27°52' W 082°33'0 0.0
2014-Apr-09 12:31N 27°52' W 082°33'0 0.0
2014-Apr-09 11:31N 27°52' W 082°33'0 0.0
2014-Apr-09 10:31N 27°52' W 082°33'0 0.0
2014-Apr-09 09:31N 27°52' W 082°33'0 0.0
2014-Apr-09 08:31N 27°52' W 082°33'0 0.0
2014-Apr-09 07:31N 27°52' W 082°33'0 0.0
2014-Apr-09 06:34N 27°52' W 082°33'0 0.0
2014-Apr-09 05:33N 27°52' W 082°33'0 0.0
2014-Apr-09 04:33N 27°52' W 082°33'0 0.0
2014-Apr-09 03:33N 27°52' W 082°33'0 0.0
2014-Apr-09 02:33N 27°52' W 082°33'0 0.0
2014-Apr-09 01:33N 27°52' W 082°33'0 0.0
2014-Apr-09 00:33N 27°52' W 082°33'0 0.0
2014-Apr-08 23:33N 27°52' W 082°33'0 0.0
2014-Apr-08 22:33N 27°52' W 082°33'0 0.0
2014-Apr-08 21:33N 27°52' W 082°33'0 0.0
2014-Apr-08 20:33N 27°52' W 082°33'0 0.0
2014-Apr-08 19:33N 27°52' W 082°33'0 0.0
2014-Apr-08 18:33N 27°52' W 082°33'0 0.0
2014-Apr-08 17:30N 27°52' W 082°33'0 0.4
2014-Apr-08 16:33N 27°52' W 082°33'5 5.4
2014-Apr-08 15:33N 27°46' W 082°31'13 0.6
2014-Apr-07 20:05N 27°37' W 082°40'612.2
2014-Apr-07 19:33N 27°41' W 082°35'16 7.7
2014-Apr-07 17:29N 27°55' W 082°27'0 0.0
2014-Apr-07 16:32N 27°55' W 082°27'0 0.0
2014-Apr-07 15:32N 27°55' W 082°27'0 0.0
2014-Apr-07 14:32N 27°55' W 082°27'0 0.0
2014-Apr-07 13:32N 27°55' W 082°27'0 0.0
2014-Apr-07 12:32N 27°55' W 082°27'  

Dump ship's entire track history

sailing weather and tide predictions

Overseas Houston — WWAA — position and weather